Terminal Aerodrome Forecast
Issued by NWS Tuscon, AZ

Home | Current Version | Previous Version | Text Only | Print | Product List | Glossary On
Versions: 1 2 3 4 5 6 7 8 9 10 11 12 13
915
FTUS45 KTWC 121127
TAFDUG
TAF
KDUG 121127Z 1212/1312 09005KT P6SM SKC
     FM121900 13008KT P6SM SKC
     FM130400 06006KT P6SM FEW250=

USA.gov is the U.S. government's official web portal to all federal, state and local government web resources and services.